This is the latest recevied weather packets stored in our database for station/object Svratouch. If no packets are shown the sender has not sent any weather packets the latest 1 day(s).
| Time | Temp. | Humidity | Pressure | Rain* | Wind** | Luminosity | Snow |
|---|---|---|---|---|---|---|---|
| 1778012448 | 15° C | 54% | - | - | 8.94 m/s, 170° | - | - |
| 1778008848 | 17.22° C | 48% | - | - | 8.05 m/s, 160° | - | - |
| 1778005234 | 17.78° C | 39% | - | - | 5.36 m/s, 150° | - | - |
| 1778001647 | 18.89° C | 34% | - | - | 5.36 m/s, 150° | - | - |
| 1777998125 | 20° C | 32% | - | - | 8.94 m/s, 170° | - | - |
| 1777994433 | 21.11° C | 35% | - | - | 8.05 m/s, 170° | - | - |
| 1777990834 | 21.11° C | 37% | - | - | 7.15 m/s, 170° | - | - |
| 1777987228 | 21.11° C | 40% | - | - | 5.36 m/s, 170° | - | - |
| 1777983627 | 20° C | 42% | - | - | 5.36 m/s, 160° | - | - |
| 1777980026 | 20° C | 40% | - | - | 6.26 m/s, 190° | - | - |
| 1777976427 | 17.78° C | 45% | - | - | 6.26 m/s, 170° | - | - |
| 1777972826 | 17.22° C | 45% | - | - | 3.13 m/s, 170° | - | - |
| 1777969228 | 16.11° C | 48% | - | - | 3.13 m/s, 170° | - | - |
| 1777965627 | 12.78° C | 50% | - | - | 8.94 m/s, 180° | - | - |
| 1777962028 | 12.78° C | 50% | - | - | 8.94 m/s, 180° | - | - |
| 1777958422 | 12.22° C | 54% | - | - | 5.36 m/s, 180° | - | - |
| 1777954827 | 12.22° C | 50% | - | - | 4.02 m/s, 150° | - | - |
| 1777951225 | 12.78° C | 50% | - | - | 3.13 m/s, 160° | - | - |
| 1777947629 | 13.89° C | 47% | - | - | 2.24 m/s, 10° | - | - |
| 1777944028 | 13.89° C | 44% | - | - | 4.02 m/s, 200° | - | - |
| 1777940433 | 13.89° C | 44% | - | - | 6.26 m/s, 190° | - | - |
| 1777936848 | 15° C | 41% | - | - | 6.26 m/s, 170° | - | - |
| 1777933227 | 15° C | 41% | - | - | 6.26 m/s, 170° | - | - |
| 1777929626 | 15° C | 44% | - | - | 6.26 m/s, 170° | - | - |
* Rain since midnight (hover to see other rain measurements)
** Current wind speed in m/s (hover to see current wind gust speed)